sensor_id;sensor_type;location;lat;lon;timestamp;pressure;altitude;pressure_sealevel;temperature;humidity
26775;BME280;14362;51.902;7.626;2023-02-17T00:04:02;101317.53;;;9.34;100.00
26775;BME280;14362;51.902;7.626;2023-02-17T00:08:03;101312.16;;;9.37;100.00
26775;BME280;14362;51.902;7.626;2023-02-17T00:12:05;101316.09;;;9.36;100.00
26775;BME280;14362;51.902;7.626;2023-02-17T00:16:07;101316.09;;;9.36;100.00
26775;BME280;14362;51.902;7.626;2023-02-17T00:20:11;101306.59;;;9.37;100.00
26775;BME280;14362;51.902;7.626;2023-02-17T00:24:12;101300.19;;;9.37;100.00
26775;BME280;14362;51.902;7.626;2023-02-17T00:28:14;101297.13;;;9.38;100.00
26775;BME280;14362;51.902;7.626;2023-02-17T00:32:15;101300.72;;;9.39;100.00
26775;BME280;14362;51.902;7.626;2023-02-17T00:36:18;101305.47;;;9.38;100.00
26775;BME280;14362;51.902;7.626;2023-02-17T00:40:20;101305.69;;;9.42;100.00
26775;BME280;14362;51.902;7.626;2023-02-17T00:44:23;101297.34;;;9.42;100.00
26775;BME280;14362;51.902;7.626;2023-02-17T00:48:24;101295.41;;;9.42;100.00
26775;BME280;14362;51.902;7.626;2023-02-17T00:52:27;101297.06;;;9.43;100.00
26775;BME280;14362;51.902;7.626;2023-02-17T00:56:29;101297.56;;;9.45;100.00
26775;BME280;14362;51.902;7.626;2023-02-17T01:00:30;101294.78;;;9.45;100.00
26775;BME280;14362;51.902;7.626;2023-02-17T01:04:31;101287.78;;;9.48;100.00
26775;BME280;14362;51.902;7.626;2023-02-17T01:08:34;101279.13;;;9.49;100.00
26775;BME280;14362;51.902;7.626;2023-02-17T01:12:37;101279.13;;;9.49;100.00
26775;BME280;14362;51.902;7.626;2023-02-17T01:16:40;101271.31;;;9.51;100.00
26775;BME280;14362;51.902;7.626;2023-02-17T01:20:44;101276.88;;;9.51;100.00
26775;BME280;14362;51.902;7.626;2023-02-17T01:24:46;101276.78;;;9.56;100.00
26775;BME280;14362;51.902;7.626;2023-02-17T01:28:49;101269.38;;;9.52;100.00
26775;BME280;14362;51.902;7.626;2023-02-17T01:32:50;101273.69;;;9.58;100.00
26775;BME280;14362;51.902;7.626;2023-02-17T01:36:52;101266.19;;;9.58;100.00
26775;BME280;14362;51.902;7.626;2023-02-17T01:40:55;101270.63;;;9.59;100.00
26775;BME280;14362;51.902;7.626;2023-02-17T01:45:33;101267.22;;;9.62;100.00
26775;BME280;14362;51.902;7.626;2023-02-17T01:49:36;101271.63;;;9.63;100.00
26775;BME280;14362;51.902;7.626;2023-02-17T01:53:42;101258.78;;;9.67;100.00
26775;BME280;14362;51.902;7.626;2023-02-17T01:57:47;101259.81;;;9.71;100.00
26775;BME280;14362;51.902;7.626;2023-02-17T02:01:53;101255.69;;;9.69;100.00
26775;BME280;14362;51.902;7.626;2023-02-17T02:05:55;101254.25;;;9.71;100.00
26775;BME280;14362;51.902;7.626;2023-02-17T02:09:57;101250.84;;;9.74;100.00
26775;BME280;14362;51.902;7.626;2023-02-17T02:14:01;101236.63;;;9.76;100.00
26775;BME280;14362;51.902;7.626;2023-02-17T02:18:16;101224.66;;;9.75;100.00
26775;BME280;14362;51.902;7.626;2023-02-17T02:27:18;101190.22;;;9.71;100.00
26775;BME280;14362;51.902;7.626;2023-02-17T02:31:39;101180.75;;;9.72;100.00
26775;BME280;14362;51.902;7.626;2023-02-17T02:35:51;101185.63;;;9.80;100.00
26775;BME280;14362;51.902;7.626;2023-02-17T02:39:59;101184.84;;;9.75;100.00
26775;BME280;14362;51.902;7.626;2023-02-17T02:44:01;101179.19;;;9.80;100.00
26775;BME280;14362;51.902;7.626;2023-02-17T02:48:03;101173.44;;;9.76;100.00
26775;BME280;14362;51.902;7.626;2023-02-17T02:52:10;101185.91;;;9.79;100.00
26775;BME280;14362;51.902;7.626;2023-02-17T02:56:25;101189.00;;;9.77;100.00
26775;BME280;14362;51.902;7.626;2023-02-17T03:00:32;101194.78;;;9.81;100.00
26775;BME280;14362;51.902;7.626;2023-02-17T03:04:43;101203.31;;;9.84;100.00
26775;BME280;14362;51.902;7.626;2023-02-17T03:08:52;101196.00;;;9.88;100.00
26775;BME280;14362;51.902;7.626;2023-02-17T03:12:55;101179.09;;;9.85;100.00
26775;BME280;14362;51.902;7.626;2023-02-17T03:16:57;101184.06;;;9.88;100.00
26775;BME280;14362;51.902;7.626;2023-02-17T03:21:01;101165.38;;;9.88;100.00
26775;BME280;14362;51.902;7.626;2023-02-17T03:25:07;101169.31;;;9.87;100.00
26775;BME280;14362;51.902;7.626;2023-02-17T03:29:09;101169.53;;;9.91;100.00
26775;BME280;14362;51.902;7.626;2023-02-17T03:33:10;101168.69;;;9.90;100.00
26775;BME280;14362;51.902;7.626;2023-02-17T03:37:12;101168.16;;;9.88;100.00
26775;BME280;14362;51.902;7.626;2023-02-17T03:41:14;101177.22;;;9.94;100.00
26775;BME280;14362;51.902;7.626;2023-02-17T03:45:16;101180.88;;;9.94;100.00
26775;BME280;14362;51.902;7.626;2023-02-17T03:49:18;101176.88;;;10.00;100.00
26775;BME280;14362;51.902;7.626;2023-02-17T03:53:19;101169.34;;;10.01;100.00
26775;BME280;14362;51.902;7.626;2023-02-17T03:57:22;101157.13;;;9.97;100.00
26775;BME280;14362;51.902;7.626;2023-02-17T04:01:23;101157.13;;;9.97;100.00
26775;BME280;14362;51.902;7.626;2023-02-17T04:05:25;101157.88;;;10.02;100.00
26775;BME280;14362;51.902;7.626;2023-02-17T04:09:26;101140.03;;;10.03;100.00
26775;BME280;14362;51.902;7.626;2023-02-17T04:13:29;101136.72;;;10.01;100.00
26775;BME280;14362;51.902;7.626;2023-02-17T04:17:31;101136.00;;;10.09;100.00
26775;BME280;14362;51.902;7.626;2023-02-17T04:21:33;101134.38;;;10.08;100.00
26775;BME280;14362;51.902;7.626;2023-02-17T04:25:36;101141.25;;;10.11;100.00
26775;BME280;14362;51.902;7.626;2023-02-17T04:29:39;101124.34;;;10.07;100.00
26775;BME280;14362;51.902;7.626;2023-02-17T04:33:40;101103.28;;;10.15;100.00
26775;BME280;14362;51.902;7.626;2023-02-17T04:37:42;101130.44;;;10.09;100.00
26775;BME280;14362;51.902;7.626;2023-02-17T04:41:43;101130.97;;;10.11;100.00
26775;BME280;14362;51.902;7.626;2023-02-17T04:45:46;101122.09;;;10.09;100.00
26775;BME280;14362;51.902;7.626;2023-02-17T04:49:47;101127.66;;;10.09;100.00
26775;BME280;14362;51.902;7.626;2023-02-17T04:53:49;101123.22;;;10.08;100.00
26775;BME280;14362;51.902;7.626;2023-02-17T04:57:50;101118.34;;;10.14;100.00
26775;BME280;14362;51.902;7.626;2023-02-17T05:01:53;101109.81;;;10.10;100.00
26775;BME280;14362;51.902;7.626;2023-02-17T05:05:55;101118.88;;;10.16;100.00
26775;BME280;14362;51.902;7.626;2023-02-17T05:09:56;101108.06;;;10.14;100.00
26775;BME280;14362;51.902;7.626;2023-02-17T05:13:57;101106.22;;;10.10;100.00
26775;BME280;14362;51.902;7.626;2023-02-17T05:18:00;101098.06;;;10.13;100.00
26775;BME280;14362;51.902;7.626;2023-02-17T05:22:02;101095.25;;;10.26;100.00
26775;BME280;14362;51.902;7.626;2023-02-17T05:26:04;101096.59;;;10.16;100.00
26775;BME280;14362;51.902;7.626;2023-02-17T05:30:06;101084.19;;;10.21;100.00
26775;BME280;14362;51.902;7.626;2023-02-17T05:34:09;101070.78;;;10.23;100.00
26775;BME280;14362;51.902;7.626;2023-02-17T05:38:10;101060.88;;;10.18;100.00
26775;BME280;14362;51.902;7.626;2023-02-17T05:42:12;101068.63;;;10.20;100.00
26775;BME280;14362;51.902;7.626;2023-02-17T05:46:14;101077.16;;;10.24;100.00
26775;BME280;14362;51.902;7.626;2023-02-17T05:50:17;101067.16;;;10.23;100.00
26775;BME280;14362;51.902;7.626;2023-02-17T05:54:18;101063.25;;;10.24;100.00
26775;BME280;14362;51.902;7.626;2023-02-17T05:58:20;101045.91;;;10.27;100.00
26775;BME280;14362;51.902;7.626;2023-02-17T06:02:21;101044.13;;;10.31;100.00
26775;BME280;14362;51.902;7.626;2023-02-17T06:06:24;101039.88;;;10.33;100.00
26775;BME280;14362;51.902;7.626;2023-02-17T06:10:25;101041.25;;;10.36;100.00
26775;BME280;14362;51.902;7.626;2023-02-17T06:14:27;101041.88;;;10.33;100.00
26775;BME280;14362;51.902;7.626;2023-02-17T06:18:29;101066.94;;;10.33;100.00
26775;BME280;14362;51.902;7.626;2023-02-17T06:22:31;101077.25;;;10.32;100.00
26775;BME280;14362;51.902;7.626;2023-02-17T06:26:33;101067.44;;;10.35;100.00
26775;BME280;14362;51.902;7.626;2023-02-17T06:30:34;101047.81;;;10.40;100.00
26775;BME280;14362;51.902;7.626;2023-02-17T06:34:36;101041.31;;;10.44;100.00
26775;BME280;14362;51.902;7.626;2023-02-17T06:38:38;101047.19;;;10.43;100.00
26775;BME280;14362;51.902;7.626;2023-02-17T06:42:40;101054.41;;;10.44;100.00
26775;BME280;14362;51.902;7.626;2023-02-17T06:46:41;101057.19;;;10.44;100.00
26775;BME280;14362;51.902;7.626;2023-02-17T06:50:45;101056.03;;;10.45;100.00
26775;BME280;14362;51.902;7.626;2023-02-17T06:54:50;101055.81;;;10.55;100.00
26775;BME280;14362;51.902;7.626;2023-02-17T06:58:51;101036.31;;;10.55;100.00
26775;BME280;14362;51.902;7.626;2023-02-17T07:02:53;101046.78;;;10.58;100.00
26775;BME280;14362;51.902;7.626;2023-02-17T07:06:54;101050.34;;;10.50;100.00
26775;BME280;14362;51.902;7.626;2023-02-17T07:10:57;101057.59;;;10.51;100.00
26775;BME280;14362;51.902;7.626;2023-02-17T07:14:58;101053.44;;;10.48;100.00
26775;BME280;14362;51.902;7.626;2023-02-17T07:19:00;101037.06;;;10.47;100.00
26775;BME280;14362;51.902;7.626;2023-02-17T07:23:01;101047.81;;;10.40;100.00
26775;BME280;14362;51.902;7.626;2023-02-17T07:27:05;101041.72;;;10.38;100.00
26775;BME280;14362;51.902;7.626;2023-02-17T07:31:09;101051.34;;;10.32;100.00
26775;BME280;14362;51.902;7.626;2023-02-17T07:35:10;101041.88;;;10.33;100.00
26775;BME280;14362;51.902;7.626;2023-02-17T07:39:12;101043.50;;;10.34;100.00
26775;BME280;14362;51.902;7.626;2023-02-17T07:43:15;101044.13;;;10.31;100.00
26775;BME280;14362;51.902;7.626;2023-02-17T07:47:16;101033.34;;;10.38;100.00
26775;BME280;14362;51.902;7.626;2023-02-17T07:51:19;101044.72;;;10.41;100.00
26775;BME280;14362;51.902;7.626;2023-02-17T07:55:21;101037.16;;;10.42;100.00
26775;BME280;14362;51.902;7.626;2023-02-17T07:59:24;101040.03;;;10.50;100.00
26775;BME280;14362;51.902;7.626;2023-02-17T08:03:26;101032.00;;;10.49;100.00
26775;BME280;14362;51.902;7.626;2023-02-17T08:07:27;101020.22;;;10.52;100.00
26775;BME280;14362;51.902;7.626;2023-02-17T08:11:29;101033.00;;;10.53;100.00
26775;BME280;14362;51.902;7.626;2023-02-17T08:15:50;101031.53;;;10.55;100.00
26775;BME280;14362;51.902;7.626;2023-02-17T08:19:51;101014.00;;;10.55;100.00
26775;BME280;14362;51.902;7.626;2023-02-17T08:23:53;101003.66;;;10.55;100.00
26775;BME280;14362;51.902;7.626;2023-02-17T08:27:55;100994.03;;;10.61;100.00
26775;BME280;14362;51.902;7.626;2023-02-17T08:31:57;101002.75;;;10.68;100.00
26775;BME280;14362;51.902;7.626;2023-02-17T08:36:04;101011.47;;;10.67;100.00
26775;BME280;14362;51.902;7.626;2023-02-17T08:40:07;101014.56;;;10.65;100.00
26775;BME280;14362;51.902;7.626;2023-02-17T08:44:11;101026.41;;;10.71;100.00
26775;BME280;14362;51.902;7.626;2023-02-17T08:48:14;101017.25;;;10.79;100.00
26775;BME280;14362;51.902;7.626;2023-02-17T08:52:15;101006.09;;;10.79;100.00
26775;BME280;14362;51.902;7.626;2023-02-17T08:56:17;100999.94;;;10.90;100.00
26775;BME280;14362;51.902;7.626;2023-02-17T09:00:18;101012.75;;;10.91;100.00
26775;BME280;14362;51.902;7.626;2023-02-17T09:04:21;101005.72;;;10.94;100.00
26775;BME280;14362;51.902;7.626;2023-02-17T09:08:23;101007.03;;;10.96;100.00
26775;BME280;14362;51.902;7.626;2023-02-17T09:12:24;101026.94;;;11.03;100.00
26775;BME280;14362;51.902;7.626;2023-02-17T09:16:26;101031.69;;;11.03;100.00
26775;BME280;14362;51.902;7.626;2023-02-17T09:20:29;101043.34;;;11.05;100.00
26775;BME280;14362;51.902;7.626;2023-02-17T09:24:30;101034.84;;;11.10;100.00
26775;BME280;14362;51.902;7.626;2023-02-17T09:28:33;101025.16;;;11.16;100.00
26775;BME280;14362;51.902;7.626;2023-02-17T09:32:34;101037.66;;;11.18;100.00
26775;BME280;14362;51.902;7.626;2023-02-17T09:36:39;101047.72;;;11.27;100.00
26775;BME280;14362;51.902;7.626;2023-02-17T09:40:42;101066.13;;;11.28;100.00
26775;BME280;14362;51.902;7.626;2023-02-17T09:44:48;101061.38;;;11.37;100.00
26775;BME280;14362;51.902;7.626;2023-02-17T09:48:54;101067.50;;;11.48;100.00
26775;BME280;14362;51.902;7.626;2023-02-17T09:53:02;101073.78;;;11.53;100.00
26775;BME280;14362;51.902;7.626;2023-02-17T09:57:07;101070.06;;;11.58;100.00
26775;BME280;14362;51.902;7.626;2023-02-17T10:01:17;101063.81;;;11.61;100.00
26775;BME280;14362;51.902;7.626;2023-02-17T10:05:22;101071.03;;;11.62;100.00
26775;BME280;14362;51.902;7.626;2023-02-17T10:09:30;101058.91;;;11.66;100.00
26775;BME280;14362;51.902;7.626;2023-02-17T10:13:33;101053.50;;;11.70;100.00
26775;BME280;14362;51.902;7.626;2023-02-17T10:17:43;101047.91;;;11.70;100.00
26775;BME280;14362;51.902;7.626;2023-02-17T10:21:50;101049.75;;;11.83;100.00
26775;BME280;14362;51.902;7.626;2023-02-17T10:26:04;101044.69;;;11.93;100.00
26775;BME280;14362;51.902;7.626;2023-02-17T10:30:29;101026.47;;;12.04;100.00
26775;BME280;14362;51.902;7.626;2023-02-17T10:34:34;101011.34;;;11.97;100.00
26775;BME280;14362;51.902;7.626;2023-02-17T10:38:44;101006.09;;;12.12;100.00
26775;BME280;14362;51.902;7.626;2023-02-17T10:42:52;100988.16;;;12.22;100.00
26775;BME280;14362;51.902;7.626;2023-02-17T10:46:55;101000.69;;;12.24;100.00
26775;BME280;14362;51.902;7.626;2023-02-17T10:50:58;100986.69;;;12.24;100.00
26775;BME280;14362;51.902;7.626;2023-02-17T10:55:03;101008.41;;;12.35;100.00
26775;BME280;14362;51.902;7.626;2023-02-17T10:59:14;101000.31;;;12.51;100.00
26775;BME280;14362;51.902;7.626;2023-02-17T11:03:19;101004.91;;;12.55;100.00
26775;BME280;14362;51.902;7.626;2023-02-17T11:07:26;100998.63;;;12.67;100.00
26775;BME280;14362;51.902;7.626;2023-02-17T11:11:34;101001.75;;;12.82;100.00
26775;BME280;14362;51.902;7.626;2023-02-17T11:15:43;101009.47;;;12.85;100.00
26775;BME280;14362;51.902;7.626;2023-02-17T11:19:53;101009.97;;;12.96;100.00
26775;BME280;14362;51.902;7.626;2023-02-17T11:23:58;101003.72;;;12.99;100.00
26775;BME280;14362;51.902;7.626;2023-02-17T11:28:00;100998.94;;;12.91;100.00
26775;BME280;14362;51.902;7.626;2023-02-17T11:32:05;101006.34;;;12.87;100.00
26775;BME280;14362;51.902;7.626;2023-02-17T11:36:21;101005.03;;;12.93;100.00
26775;BME280;14362;51.902;7.626;2023-02-17T11:40:24;101003.53;;;12.95;100.00
26775;BME280;14362;51.902;7.626;2023-02-17T11:44:27;101001.25;;;12.97;100.00
26775;BME280;14362;51.902;7.626;2023-02-17T11:52:57;100975.50;;;13.21;100.00
26775;BME280;14362;51.902;7.626;2023-02-17T11:57:16;100955.19;;;13.24;100.00
26775;BME280;14362;51.902;7.626;2023-02-17T12:01:37;100961.94;;;13.23;100.00
26775;BME280;14362;51.902;7.626;2023-02-17T12:05:56;100980.88;;;13.26;100.00
26775;BME280;14362;51.902;7.626;2023-02-17T12:10:02;100980.34;;;12.95;100.00
26775;BME280;14362;51.902;7.626;2023-02-17T12:14:16;100970.31;;;12.94;100.00
26775;BME280;14362;51.902;7.626;2023-02-17T12:18:29;100986.94;;;12.82;100.00
26775;BME280;14362;51.902;7.626;2023-02-17T12:22:41;100983.94;;;12.87;100.00
26775;BME280;14362;51.902;7.626;2023-02-17T12:26:49;100985.94;;;12.86;100.00
26775;BME280;14362;51.902;7.626;2023-02-17T12:30:58;100994.19;;;12.83;100.00
26775;BME280;14362;51.902;7.626;2023-02-17T12:35:09;101010.97;;;12.83;100.00
26775;BME280;14362;51.902;7.626;2023-02-17T12:39:19;101023.78;;;12.75;100.00
26775;BME280;14362;51.902;7.626;2023-02-17T12:43:24;101033.34;;;12.74;100.00
26775;BME280;14362;51.902;7.626;2023-02-17T12:47:29;101029.41;;;12.67;100.00
26775;BME280;14362;51.902;7.626;2023-02-17T12:51:37;101029.09;;;12.68;100.00
26775;BME280;14362;51.902;7.626;2023-02-17T12:55:43;101000.94;;;12.65;100.00
26775;BME280;14362;51.902;7.626;2023-02-17T12:59:49;101004.94;;;12.64;100.00
26775;BME280;14362;51.902;7.626;2023-02-17T13:03:52;101039.44;;;12.59;100.00
26775;BME280;14362;51.902;7.626;2023-02-17T13:07:57;101035.00;;;12.67;100.00
26775;BME280;14362;51.902;7.626;2023-02-17T13:12:17;101037.50;;;12.60;100.00
26775;BME280;14362;51.902;7.626;2023-02-17T13:16:18;101049.00;;;12.58;100.00
26775;BME280;14362;51.902;7.626;2023-02-17T13:20:27;101050.47;;;12.56;100.00
26775;BME280;14362;51.902;7.626;2023-02-17T13:24:39;101065.47;;;12.51;100.00
26775;BME280;14362;51.902;7.626;2023-02-17T13:29:04;101072.50;;;12.49;100.00
26775;BME280;14362;51.902;7.626;2023-02-17T13:33:26;101074.66;;;12.43;100.00
26775;BME280;14362;51.902;7.626;2023-02-17T13:37:38;101090.13;;;12.32;100.00
26775;BME280;14362;51.902;7.626;2023-02-17T13:41:44;101106.84;;;12.07;100.00
26775;BME280;14362;51.902;7.626;2023-02-17T13:45:48;101145.28;;;12.02;100.00
26775;BME280;14362;51.902;7.626;2023-02-17T13:49:55;101111.38;;;11.86;100.00
26775;BME280;14362;51.902;7.626;2023-02-17T13:54:03;101125.66;;;11.85;100.00
26775;BME280;14362;51.902;7.626;2023-02-17T13:58:05;101122.03;;;11.76;100.00
26775;BME280;14362;51.902;7.626;2023-02-17T14:02:17;101126.59;;;11.72;100.00
26775;BME280;14362;51.902;7.626;2023-02-17T14:06:23;101125.28;;;11.69;100.00
26775;BME280;14362;51.902;7.626;2023-02-17T14:10:26;101119.16;;;11.59;100.00
26775;BME280;14362;51.902;7.626;2023-02-17T14:14:30;101119.81;;;11.56;100.00
26775;BME280;14362;51.902;7.626;2023-02-17T14:18:35;101122.25;;;11.57;100.00
26775;BME280;14362;51.902;7.626;2023-02-17T14:22:38;101134.28;;;11.58;100.00
26775;BME280;14362;51.902;7.626;2023-02-17T14:26:43;101115.03;;;11.56;100.00
26775;BME280;14362;51.902;7.626;2023-02-17T14:30:45;101121.63;;;11.60;100.00
26775;BME280;14362;51.902;7.626;2023-02-17T14:34:47;101130.47;;;11.54;100.00
26775;BME280;14362;51.902;7.626;2023-02-17T14:38:54;101119.47;;;11.57;100.00
26775;BME280;14362;51.902;7.626;2023-02-17T14:42:55;101112.34;;;11.51;100.00
26775;BME280;14362;51.902;7.626;2023-02-17T14:46:57;101115.66;;;11.53;100.00
26775;BME280;14362;51.902;7.626;2023-02-17T14:50:59;101121.38;;;11.48;100.00
26775;BME280;14362;51.902;7.626;2023-02-17T14:55:01;101130.69;;;11.44;100.00
26775;BME280;14362;51.902;7.626;2023-02-17T14:59:03;101122.31;;;11.44;100.00
26775;BME280;14362;51.902;7.626;2023-02-17T15:03:04;101134.50;;;11.48;100.00
26775;BME280;14362;51.902;7.626;2023-02-17T15:07:11;101129.09;;;11.51;100.00
26775;BME280;14362;51.902;7.626;2023-02-17T15:11:17;101124.25;;;11.57;100.00
26775;BME280;14362;51.902;7.626;2023-02-17T15:15:20;101163.19;;;11.62;100.00
26775;BME280;14362;51.902;7.626;2023-02-17T15:19:21;101152.72;;;11.67;100.00
26775;BME280;14362;51.902;7.626;2023-02-17T15:23:29;101175.19;;;11.62;100.00
26775;BME280;14362;51.902;7.626;2023-02-17T15:27:31;101151.06;;;11.66;100.00
26775;BME280;14362;51.902;7.626;2023-02-17T15:31:33;101149.44;;;11.74;100.00
26775;BME280;14362;51.902;7.626;2023-02-17T15:35:35;101165.19;;;11.70;100.00
26775;BME280;14362;51.902;7.626;2023-02-17T15:39:38;101172.94;;;11.73;100.00
26775;BME280;14362;51.902;7.626;2023-02-17T15:43:39;101182.97;;;11.74;100.00
26775;BME280;14362;51.902;7.626;2023-02-17T15:47:41;101165.03;;;11.66;100.00
26775;BME280;14362;51.902;7.626;2023-02-17T15:51:42;101176.03;;;11.71;100.00
26775;BME280;14362;51.902;7.626;2023-02-17T15:55:46;101164.09;;;11.79;100.00
26775;BME280;14362;51.902;7.626;2023-02-17T15:59:47;101152.75;;;11.76;100.00
26775;BME280;14362;51.902;7.626;2023-02-17T16:03:49;101162.78;;;11.77;100.00
26775;BME280;14362;51.902;7.626;2023-02-17T16:07:50;101145.66;;;11.70;100.00
26775;BME280;14362;51.902;7.626;2023-02-17T16:11:53;101164.72;;;11.76;100.00
26775;BME280;14362;51.902;7.626;2023-02-17T16:15:57;101174.66;;;11.91;100.00
26775;BME280;14362;51.902;7.626;2023-02-17T16:19:59;101188.41;;;11.79;100.00
26775;BME280;14362;51.902;7.626;2023-02-17T16:24:00;101189.91;;;11.85;100.00
26775;BME280;14362;51.902;7.626;2023-02-17T16:28:05;101187.44;;;11.83;100.00
26775;BME280;14362;51.902;7.626;2023-02-17T16:32:10;101201.72;;;11.82;100.00
26775;BME280;14362;51.902;7.626;2023-02-17T16:36:14;101218.69;;;11.85;100.00
26775;BME280;14362;51.902;7.626;2023-02-17T16:40:17;101212.59;;;11.83;100.00
26775;BME280;14362;51.902;7.626;2023-02-17T16:44:21;101223.56;;;11.80;100.00
26775;BME280;14362;51.902;7.626;2023-02-17T16:48:24;101235.91;;;11.79;100.00
26775;BME280;14362;51.902;7.626;2023-02-17T16:52:26;101243.94;;;11.80;100.00
26775;BME280;14362;51.902;7.626;2023-02-17T16:56:33;101228.19;;;11.84;100.00
26775;BME280;14362;51.902;7.626;2023-02-17T17:00:37;101235.56;;;11.80;100.00
26775;BME280;14362;51.902;7.626;2023-02-17T17:04:38;101245.09;;;11.79;100.00
26775;BME280;14362;51.902;7.626;2023-02-17T17:08:40;101256.63;;;11.86;100.00
26775;BME280;14362;51.902;7.626;2023-02-17T17:12:41;101255.13;;;11.80;100.00
26775;BME280;14362;51.902;7.626;2023-02-17T17:16:49;101263.31;;;11.77;100.00
26775;BME280;14362;51.902;7.626;2023-02-17T17:20:51;101267.75;;;11.78;100.00
26775;BME280;14362;51.902;7.626;2023-02-17T17:24:52;101266.75;;;11.74;100.00
26775;BME280;14362;51.902;7.626;2023-02-17T17:28:54;101264.72;;;11.66;100.00
26775;BME280;14362;51.902;7.626;2023-02-17T17:32:57;101268.97;;;11.63;100.00
26775;BME280;14362;51.902;7.626;2023-02-17T17:36:58;101264.59;;;11.71;100.00
26775;BME280;14362;51.902;7.626;2023-02-17T17:41:00;101277.88;;;11.65;100.00
26775;BME280;14362;51.902;7.626;2023-02-17T17:45:02;101273.41;;;11.64;100.00
26775;BME280;14362;51.902;7.626;2023-02-17T17:49:06;101292.84;;;11.69;100.00
26775;BME280;14362;51.902;7.626;2023-02-17T17:53:09;101290.53;;;11.71;100.00
26775;BME280;14362;51.902;7.626;2023-02-17T17:57:10;101298.28;;;11.74;100.00
26775;BME280;14362;51.902;7.626;2023-02-17T18:01:12;101306.66;;;11.74;100.00
26775;BME280;14362;51.902;7.626;2023-02-17T18:05:15;101301.47;;;11.81;100.00
26775;BME280;14362;51.902;7.626;2023-02-17T18:09:21;101319.69;;;11.79;100.00
26775;BME280;14362;51.902;7.626;2023-02-17T18:13:24;101328.88;;;11.79;100.00
26775;BME280;14362;51.902;7.626;2023-02-17T18:17:25;101312.00;;;11.84;100.00
26775;BME280;14362;51.902;7.626;2023-02-17T18:21:28;101334.19;;;11.89;100.00
26775;BME280;14362;51.902;7.626;2023-02-17T18:25:30;101333.19;;;11.85;100.00
26775;BME280;14362;51.902;7.626;2023-02-17T18:29:31;101341.38;;;11.82;100.00
26775;BME280;14362;51.902;7.626;2023-02-17T18:33:33;101347.91;;;11.77;100.00
26775;BME280;14362;51.902;7.626;2023-02-17T18:37:35;101364.16;;;11.75;100.00
26775;BME280;14362;51.902;7.626;2023-02-17T18:41:39;101362.22;;;11.76;100.00
26775;BME280;14362;51.902;7.626;2023-02-17T18:45:40;101363.97;;;11.72;100.00
26775;BME280;14362;51.902;7.626;2023-02-17T18:49:42;101378.38;;;11.65;100.00
26775;BME280;14362;51.902;7.626;2023-02-17T18:53:45;101395.25;;;11.60;100.00
26775;BME280;14362;51.902;7.626;2023-02-17T18:57:48;101395.59;;;11.45;100.00
26775;BME280;14362;51.902;7.626;2023-02-17T19:01:50;101402.50;;;11.48;100.00
26775;BME280;14362;51.902;7.626;2023-02-17T19:05:51;101426.41;;;11.40;100.00
26775;BME280;14362;51.902;7.626;2023-02-17T19:09:54;101432.22;;;11.30;100.00
26775;BME280;14362;51.902;7.626;2023-02-17T19:13:55;101432.63;;;11.24;100.00
26775;BME280;14362;51.902;7.626;2023-02-17T19:17:57;101445.94;;;11.14;100.00
26775;BME280;14362;51.902;7.626;2023-02-17T19:21:58;101432.75;;;11.06;100.00
26775;BME280;14362;51.902;7.626;2023-02-17T19:26:02;101461.25;;;11.03;100.00
26775;BME280;14362;51.902;7.626;2023-02-17T19:30:05;101453.59;;;11.08;100.00
26775;BME280;14362;51.902;7.626;2023-02-17T19:34:07;101470.56;;;10.98;100.00
26775;BME280;14362;51.902;7.626;2023-02-17T19:38:08;101472.00;;;10.96;100.00
26775;BME280;14362;51.902;7.626;2023-02-17T19:42:11;101470.56;;;10.98;100.00
26775;BME280;14362;51.902;7.626;2023-02-17T19:46:14;101473.44;;;10.93;100.00
26775;BME280;14362;51.902;7.626;2023-02-17T19:50:17;101478.59;;;10.86;100.00
26775;BME280;14362;51.902;7.626;2023-02-17T19:54:18;101476.94;;;10.85;100.00
26775;BME280;14362;51.902;7.626;2023-02-17T19:58:21;101472.28;;;10.81;100.00
26775;BME280;14362;51.902;7.626;2023-02-17T20:02:22;101491.63;;;10.77;100.00
26775;BME280;14362;51.902;7.626;2023-02-17T20:06:25;101483.84;;;10.74;100.00
26775;BME280;14362;51.902;7.626;2023-02-17T20:10:27;101485.41;;;10.67;100.00
26775;BME280;14362;51.902;7.626;2023-02-17T20:14:30;101484.34;;;10.63;100.00
26775;BME280;14362;51.902;7.626;2023-02-17T20:18:32;101479.69;;;10.58;100.00
26775;BME280;14362;51.902;7.626;2023-02-17T20:22:33;101490.66;;;10.55;100.00
26775;BME280;14362;51.902;7.626;2023-02-17T20:26:37;101493.19;;;10.51;100.00
26775;BME280;14362;51.902;7.626;2023-02-17T20:30:41;101502.16;;;10.48;100.00
26775;BME280;14362;51.902;7.626;2023-02-17T20:34:42;101492.47;;;10.46;100.00
26775;BME280;14362;51.902;7.626;2023-02-17T20:38:44;101495.03;;;10.42;100.00
26775;BME280;14362;51.902;7.626;2023-02-17T20:42:45;101496.69;;;10.43;100.00
26775;BME280;14362;51.902;7.626;2023-02-17T20:46:48;101504.22;;;10.43;100.00
26775;BME280;14362;51.902;7.626;2023-02-17T20:50:49;101507.00;;;10.43;100.00
26775;BME280;14362;51.902;7.626;2023-02-17T20:54:51;101501.88;;;10.50;100.00
26775;BME280;14362;51.902;7.626;2023-02-17T20:58:52;101512.81;;;10.46;100.00
26775;BME280;14362;51.902;7.626;2023-02-17T21:02:55;101515.09;;;10.44;100.00
26775;BME280;14362;51.902;7.626;2023-02-17T21:06:57;101515.91;;;10.45;100.00
26775;BME280;14362;51.902;7.626;2023-02-17T21:10:59;101508.25;;;10.50;100.00
26775;BME280;14362;51.902;7.626;2023-02-17T21:15:00;101501.75;;;10.41;100.00